createdAt,value
2023-05-23T00:01:22.911Z,99823.06
2023-05-23T00:03:54.135Z,99823.19
2023-05-23T00:06:24.229Z,99822.34
2023-05-23T00:08:54.075Z,99816.28
2023-05-23T00:11:27.399Z,99819.72
2023-05-23T00:13:57.718Z,99817.97
2023-05-23T00:16:27.371Z,99811.91
2023-05-23T00:18:57.944Z,99818.91
2023-05-23T00:21:27.811Z,99812.69
2023-05-23T00:23:58.373Z,99812.69
2023-05-23T00:26:31.517Z,99804.81
2023-05-23T00:29:01.273Z,99811.09
2023-05-23T00:31:31.917Z,99820.81
2023-05-23T00:34:01.691Z,99812.75
2023-05-23T00:36:31.356Z,99805.69
2023-05-23T00:39:02.586Z,99806.66
2023-05-23T00:41:36.752Z,99801.41
2023-05-23T00:44:06.602Z,99802.38
2023-05-23T00:46:36.310Z,99799.78
2023-05-23T00:49:06.302Z,99794.59
2023-05-23T00:51:36.688Z,99804.38
2023-05-23T00:54:08.892Z,99794.75
2023-05-23T00:56:44.099Z,99800.03
2023-05-23T00:59:14.984Z,99799.00
2023-05-23T01:01:47.588Z,99794.66
2023-05-23T01:04:18.152Z,99794.75
2023-05-23T01:06:49.445Z,99793.88
2023-05-23T01:09:21.141Z,99791.97
2023-05-23T01:12:05.814Z,99788.31
2023-05-23T01:14:45.225Z,99790.13
2023-05-23T01:17:20.790Z,99783.25
2023-05-23T01:20:02.327Z,99793.88
2023-05-23T01:22:47.085Z,99791.38
2023-05-23T01:25:31.179Z,99792.34
2023-05-23T01:28:06.334Z,99791.50
2023-05-23T01:30:41.608Z,99793.28
2023-05-23T01:33:12.731Z,99791.53
2023-05-23T01:35:43.978Z,99792.50
2023-05-23T01:38:13.681Z,99786.38
2023-05-23T01:40:43.395Z,99787.22
2023-05-23T01:43:15.658Z,99786.41
2023-05-23T01:45:46.194Z,99782.03
2023-05-23T01:48:18.367Z,99774.13
2023-05-23T01:50:48.857Z,99776.78
2023-05-23T01:53:20.471Z,99771.59
2023-05-23T01:55:50.608Z,99771.59
2023-05-23T01:58:23.113Z,99775.16
2023-05-23T02:00:52.939Z,99773.47
2023-05-23T02:03:22.838Z,99762.06
2023-05-23T02:05:52.623Z,99762.06
2023-05-23T02:08:22.245Z,99755.94
2023-05-23T02:10:52.098Z,99752.47
2023-05-23T02:13:24.322Z,99755.16
2023-05-23T02:15:53.951Z,99746.34
2023-05-23T02:18:26.442Z,99746.31
2023-05-23T02:20:56.444Z,99748.06
2023-05-23T02:23:26.386Z,99743.69
2023-05-23T02:25:56.467Z,99747.25
2023-05-23T02:28:28.678Z,99740.25
2023-05-23T02:30:58.492Z,99739.31
2023-05-23T02:33:28.166Z,99731.41
2023-05-23T02:35:57.984Z,99730.41
2023-05-23T02:38:27.688Z,99727.84
2023-05-23T02:40:57.850Z,99730.50
2023-05-23T02:43:30.751Z,99732.34
2023-05-23T02:46:00.468Z,99728.81
2023-05-23T02:48:30.140Z,99733.19
2023-05-23T02:50:59.930Z,99737.63
2023-05-23T02:53:29.686Z,99732.38
2023-05-23T02:55:59.316Z,99729.72
2023-05-23T02:58:32.119Z,99731.44
2023-05-23T03:01:01.762Z,99729.72
2023-05-23T03:03:31.870Z,99725.38
2023-05-23T03:06:01.714Z,99718.38
2023-05-23T03:08:31.343Z,99718.41
2023-05-23T03:11:01.178Z,99710.50
2023-05-23T03:13:33.634Z,99713.16
2023-05-23T03:16:03.475Z,99706.03
2023-05-23T03:18:33.380Z,99703.38
2023-05-23T03:21:03.847Z,99710.34
2023-05-23T03:23:33.502Z,99702.44
2023-05-23T03:26:03.765Z,99697.81
2023-05-23T03:28:36.712Z,99703.78
2023-05-23T03:31:06.520Z,99698.22
2023-05-23T03:33:38.862Z,99706.84
2023-05-23T03:36:10.252Z,99702.34
2023-05-23T03:38:40.201Z,99707.41
2023-05-23T03:41:10.229Z,99694.97
2023-05-23T03:43:42.520Z,99700.81
2023-05-23T03:46:12.282Z,99693.34
2023-05-23T03:48:42.083Z,99695.94
2023-05-23T03:51:13.691Z,99699.53
2023-05-23T03:53:43.406Z,99710.28
2023-05-23T03:56:13.585Z,99699.38
2023-05-23T03:58:46.260Z,99707.03
2023-05-23T04:01:15.921Z,99708.84
2023-05-23T04:03:45.622Z,99703.97
2023-05-23T04:06:15.347Z,99709.75
2023-05-23T04:08:47.663Z,99702.81
2023-05-23T04:11:18.014Z,99711.25
2023-05-23T04:13:50.295Z,99696.78
2023-05-23T04:16:20.138Z,99707.41
2023-05-23T04:18:50.401Z,99707.97
2023-05-23T04:21:20.051Z,99702.91
2023-05-23T04:23:49.814Z,99700.84
2023-05-23T04:26:19.621Z,99685.25
2023-05-23T04:28:54.528Z,99690.69
2023-05-23T04:31:25.618Z,99687.97
2023-05-23T04:33:55.349Z,99691.91
2023-05-23T04:36:25.925Z,99698.81
2023-05-23T04:38:56.060Z,99698.63
2023-05-23T04:41:26.153Z,99695.38
2023-05-23T04:43:58.656Z,99685.69
2023-05-23T04:46:29.285Z,99688.38
2023-05-23T04:48:59.246Z,99672.84
2023-05-23T04:51:28.864Z,99680.16
2023-05-23T04:53:58.758Z,99682.13
2023-05-23T04:56:29.273Z,99676.97
2023-05-23T04:59:01.621Z,99679.91
2023-05-23T05:01:31.627Z,99671.53
2023-05-23T05:04:01.476Z,99675.66
2023-05-23T05:06:31.393Z,99668.47
2023-05-23T05:09:01.314Z,99672.59
2023-05-23T05:11:31.385Z,99656.25
2023-05-23T05:14:03.587Z,99666.06
2023-05-23T05:16:33.630Z,99664.53
2023-05-23T05:19:03.853Z,99659.75
2023-05-23T05:21:34.091Z,99659.75
2023-05-23T05:24:03.705Z,99663.03
2023-05-23T05:26:33.783Z,99661.03
2023-05-23T05:29:06.206Z,99667.75
2023-05-23T05:31:36.145Z,99662.72
2023-05-23T05:34:06.195Z,99667.22
2023-05-23T05:36:35.907Z,99667.06
2023-05-23T05:39:08.190Z,99669.97
2023-05-23T05:41:37.918Z,99655.53
2023-05-23T05:44:10.206Z,99655.38
2023-05-23T05:46:40.011Z,99656.03
2023-05-23T05:49:10.380Z,99657.56
2023-05-23T05:51:41.992Z,99663.09
2023-05-23T05:54:11.777Z,99661.97
2023-05-23T05:56:42.440Z,99658.84
2023-05-23T05:59:14.679Z,99656.25
2023-05-23T06:01:45.096Z,99669.00
2023-05-23T06:04:14.994Z,99663.38
2023-05-23T06:06:44.662Z,99659.44
2023-05-23T06:09:14.339Z,99662.44
2023-05-23T06:11:43.931Z,99657.16
2023-05-23T06:14:16.113Z,99658.91
2023-05-23T06:16:46.459Z,99658.53
2023-05-23T06:19:16.432Z,99652.47
2023-05-23T06:21:48.844Z,99654.94
2023-05-23T06:24:18.456Z,99665.13
2023-05-23T06:26:48.070Z,99660.41
2023-05-23T06:29:20.356Z,99661.97
2023-05-23T06:31:50.067Z,99661.75
2023-05-23T06:34:19.797Z,99658.25
2023-05-23T06:36:49.404Z,99663.91
2023-05-23T06:39:20.647Z,99661.16
2023-05-23T06:41:51.749Z,99667.16
2023-05-23T06:44:23.893Z,99663.91
2023-05-23T06:46:57.582Z,99655.16
2023-05-23T06:49:27.530Z,99652.72
2023-05-23T06:51:57.226Z,99657.50
2023-05-23T06:54:26.947Z,99645.06
2023-05-23T06:56:56.634Z,99642.34
2023-05-23T06:59:28.812Z,99649.50
2023-05-23T07:01:58.444Z,99649.06
2023-05-23T07:04:28.067Z,99648.41
2023-05-23T07:06:57.680Z,99648.63
2023-05-23T07:09:27.329Z,99639.38
2023-05-23T07:11:57.666Z,99636.00
2023-05-23T07:14:29.835Z,99636.84
2023-05-23T07:16:59.501Z,99632.03
2023-05-23T07:19:29.621Z,99641.41
2023-05-23T07:21:59.356Z,99631.31
2023-05-23T07:24:29.088Z,99627.84
2023-05-23T07:26:58.854Z,99630.69
2023-05-23T07:29:31.063Z,99621.34
2023-05-23T07:32:01.404Z,99627.59
2023-05-23T07:34:31.790Z,99619.19
2023-05-23T07:37:01.415Z,99627.13
2023-05-23T07:39:31.165Z,99619.63
2023-05-23T07:42:01.168Z,99608.56
2023-05-23T07:44:33.586Z,99598.53
2023-05-23T07:47:03.357Z,99604.69
2023-05-23T07:49:33.015Z,99599.16
2023-05-23T07:52:02.590Z,99588.22
2023-05-23T07:54:32.300Z,99592.00
2023-05-23T07:57:01.930Z,99596.16
2023-05-23T07:59:34.329Z,99598.69
2023-05-23T08:02:03.962Z,99601.59
2023-05-23T08:04:34.167Z,99602.63
2023-05-23T08:07:06.196Z,99614.28
2023-05-23T08:09:36.009Z,99602.66
2023-05-23T08:12:06.189Z,99601.78
2023-05-23T08:14:50.745Z,99613.75
2023-05-23T08:17:21.782Z,99611.16
2023-05-23T08:19:51.875Z,99614.47
2023-05-23T08:22:21.765Z,99625.59
2023-05-23T08:24:51.541Z,99628.13
2023-05-23T08:27:21.256Z,99629.34
2023-05-23T08:29:53.971Z,99633.84
2023-05-23T08:32:23.697Z,99630.38
2023-05-23T08:34:53.989Z,99640.75
2023-05-23T08:37:23.643Z,99623.88
2023-05-23T08:39:53.291Z,99634.41
2023-05-23T08:42:23.160Z,99629.09
2023-05-23T08:44:55.497Z,99629.19
2023-05-23T08:47:25.186Z,99630.19
2023-05-23T08:49:58.091Z,99625.44
2023-05-23T08:52:30.769Z,99627.38
2023-05-23T08:55:00.557Z,99630.63
2023-05-23T08:57:30.945Z,99630.78
2023-05-23T09:00:06.391Z,99634.94
2023-05-23T09:02:36.471Z,99628.69
2023-05-23T09:05:06.306Z,99629.50
2023-05-23T09:07:35.989Z,99627.53
2023-05-23T09:10:06.330Z,99627.00
2023-05-23T09:12:37.109Z,99630.78
2023-05-23T09:15:10.884Z,99627.69
2023-05-23T09:17:41.005Z,99621.44
2023-05-23T09:20:15.579Z,99629.69
2023-05-23T09:22:49.692Z,99625.53
2023-05-23T09:25:19.492Z,99640.41
2023-05-23T09:27:51.562Z,99635.00
2023-05-23T09:30:23.969Z,99635.72
2023-05-23T09:33:12.437Z,99636.22
2023-05-23T09:35:47.208Z,99632.94
2023-05-23T09:38:16.998Z,99635.09
2023-05-23T09:40:48.426Z,99630.31
2023-05-23T09:43:20.396Z,99635.25
2023-05-23T09:45:52.709Z,99634.69
2023-05-23T09:48:22.448Z,99630.22
2023-05-23T09:50:53.320Z,99634.00
2023-05-23T09:53:23.008Z,99638.09
2023-05-23T09:55:54.428Z,99640.84
2023-05-23T09:58:27.274Z,99633.69
2023-05-23T10:01:03.439Z,99634.50
2023-05-23T10:03:38.091Z,99637.13
2023-05-23T10:06:11.579Z,99635.13
2023-05-23T10:08:47.558Z,99640.25
2023-05-23T10:12:06.290Z,99639.84
2023-05-23T10:14:40.236Z,99636.69
2023-05-23T10:17:19.070Z,99635.66
2023-05-23T10:19:53.976Z,99631.47
2023-05-23T10:22:24.733Z,99637.53
2023-05-23T10:24:54.753Z,99641.28
2023-05-23T10:27:24.400Z,99638.44
2023-05-23T10:29:54.947Z,99639.78
2023-05-23T10:32:28.645Z,99639.66
2023-05-23T10:35:04.539Z,99644.53
2023-05-23T10:37:36.939Z,99650.25
2023-05-23T10:40:14.847Z,99640.31
2023-05-23T10:42:55.593Z,99647.72
2023-05-23T10:45:27.144Z,99643.28
2023-05-23T10:47:59.462Z,99636.41
2023-05-23T10:50:37.535Z,99641.97
2023-05-23T10:53:08.994Z,99644.88
2023-05-23T10:55:39.773Z,99642.44
2023-05-23T10:58:13.916Z,99635.31
2023-05-23T11:00:54.155Z,99636.34
2023-05-23T11:03:41.059Z,99634.72
2023-05-23T11:06:32.248Z,99635.78
2023-05-23T11:09:07.928Z,99628.25
2023-05-23T11:11:58.287Z,99630.56
2023-05-23T11:14:55.608Z,99638.59
2023-05-23T11:17:36.114Z,99631.38
2023-05-23T11:20:13.452Z,99636.41
2023-05-23T11:22:43.290Z,99630.94
2023-05-23T11:25:14.655Z,99630.44
2023-05-23T11:27:44.496Z,99624.69
2023-05-23T11:30:16.511Z,99634.50
2023-05-23T11:32:53.370Z,99624.16
2023-05-23T11:35:25.999Z,99623.34
2023-05-23T11:37:55.811Z,99625.41
2023-05-23T11:40:30.752Z,99615.19
2023-05-23T11:43:00.907Z,99616.56
2023-05-23T11:45:32.060Z,99622.00
2023-05-23T11:48:01.905Z,99621.09
2023-05-23T11:50:34.883Z,99621.47
2023-05-23T11:53:04.986Z,99621.75
2023-05-23T11:55:34.744Z,99618.44
2023-05-23T11:58:04.387Z,99614.69
2023-05-23T12:00:34.147Z,99622.78
2023-05-23T12:03:10.378Z,99616.50
2023-05-23T12:05:42.694Z,99615.19
2023-05-23T12:08:14.962Z,99620.81
2023-05-23T12:10:55.264Z,99629.88
2023-05-23T12:13:28.236Z,99625.88
2023-05-23T12:15:58.879Z,99626.94
2023-05-23T12:18:32.201Z,99628.75
2023-05-23T12:21:08.403Z,99629.34
2023-05-23T12:23:38.890Z,99618.91
2023-05-23T12:26:10.508Z,99619.22
2023-05-23T12:28:42.590Z,99611.31
2023-05-23T12:31:14.302Z,99615.53
2023-05-23T12:33:44.759Z,99620.56
2023-05-23T12:36:17.606Z,99617.19
2023-05-23T12:38:48.099Z,99620.63
2023-05-23T12:41:20.259Z,99614.13
2023-05-23T12:43:53.847Z,99621.28
2023-05-23T12:46:23.693Z,99614.50
2023-05-23T12:48:53.858Z,99615.66
2023-05-23T12:51:26.220Z,99610.50
2023-05-23T12:53:57.662Z,99608.31
2023-05-23T12:56:27.822Z,99608.81
2023-05-23T12:58:58.574Z,99606.53
2023-05-23T13:01:28.280Z,99604.75
2023-05-23T13:03:58.029Z,99600.91
2023-05-23T13:06:30.419Z,99605.28
2023-05-23T13:09:00.106Z,99603.53
2023-05-23T13:11:30.268Z,99588.22
2023-05-23T13:14:00.251Z,99583.72
2023-05-23T13:16:29.997Z,99588.84
2023-05-23T13:18:59.761Z,99584.25
2023-05-23T13:21:32.044Z,99589.69
2023-05-23T13:24:01.656Z,99582.31
2023-05-23T13:26:33.505Z,99585.19
2023-05-23T13:29:03.154Z,99577.41
2023-05-23T13:31:32.862Z,99582.22
2023-05-23T13:34:02.536Z,99583.75
2023-05-23T13:36:36.003Z,99579.81
2023-05-23T13:39:05.756Z,99575.16
2023-05-23T13:41:35.373Z,99571.84
2023-05-23T13:44:04.989Z,99578.06
2023-05-23T13:46:34.989Z,99578.75
2023-05-23T13:49:04.621Z,99570.06
2023-05-23T13:51:37.535Z,99577.88
2023-05-23T13:54:07.493Z,99568.34
2023-05-23T13:56:39.933Z,99583.06
2023-05-23T13:59:10.141Z,99581.94
2023-05-23T14:01:39.780Z,99579.91
2023-05-23T14:04:09.538Z,99580.16
2023-05-23T14:06:41.798Z,99583.91
2023-05-23T14:09:11.592Z,99582.78
2023-05-23T14:11:41.828Z,99590.25
2023-05-23T14:14:11.425Z,99593.28
2023-05-23T14:16:41.249Z,99594.94
2023-05-23T14:19:11.022Z,99592.25
2023-05-23T14:21:44.977Z,99596.59
2023-05-23T14:24:16.886Z,99603.03
2023-05-23T14:26:47.213Z,99602.25
2023-05-23T14:29:16.959Z,99606.38
2023-05-23T14:31:46.712Z,99605.25
2023-05-23T14:34:16.450Z,99608.13
2023-05-23T14:36:48.921Z,99601.69
2023-05-23T14:39:18.643Z,99609.88
2023-05-23T14:41:48.464Z,99609.16
2023-05-23T14:44:18.137Z,99604.94
2023-05-23T14:46:49.290Z,99607.06
2023-05-23T14:49:19.810Z,99609.16
2023-05-23T14:51:52.366Z,99608.41
2023-05-23T14:54:22.344Z,99605.34
2023-05-23T14:56:53.276Z,99604.38
2023-05-23T14:59:23.378Z,99604.38
2023-05-23T15:01:53.573Z,99599.38
2023-05-23T15:04:24.558Z,99596.78
2023-05-23T15:06:56.813Z,99600.44
2023-05-23T15:09:26.759Z,99598.53
2023-05-23T15:11:56.503Z,99600.16
2023-05-23T15:14:29.683Z,99589.06
2023-05-23T15:17:07.798Z,99597.13
2023-05-23T15:19:39.629Z,99597.09
2023-05-23T15:22:29.871Z,99594.53
2023-05-23T15:25:02.409Z,99590.13
2023-05-23T15:27:32.060Z,99595.88
2023-05-23T15:30:01.784Z,99580.28
2023-05-23T15:32:31.781Z,99591.50
2023-05-23T15:35:01.485Z,99594.09
2023-05-23T15:37:33.729Z,99587.16
2023-05-23T15:40:04.233Z,99592.91
2023-05-23T15:42:33.884Z,99589.59
2023-05-23T15:45:03.625Z,99581.78
2023-05-23T15:47:33.350Z,99589.31
2023-05-23T15:50:03.021Z,99590.78
2023-05-23T15:52:35.231Z,99582.34
2023-05-23T15:55:05.926Z,99573.09
2023-05-23T15:57:35.602Z,99583.38
2023-05-23T16:00:05.356Z,99576.22
2023-05-23T16:02:35.034Z,99580.34
2023-05-23T16:05:05.835Z,99563.38
2023-05-23T16:10:14.580Z,99564.34
2023-05-23T16:12:44.214Z,99558.41
2023-05-23T16:15:14.201Z,99561.19
2023-05-23T16:17:43.981Z,99559.81
2023-05-23T16:20:14.914Z,99561.44
2023-05-23T16:22:47.719Z,99560.66
2023-05-23T16:25:17.328Z,99561.38
2023-05-23T16:27:46.983Z,99563.16
2023-05-23T16:30:18.127Z,99560.50
2023-05-23T16:32:47.830Z,99557.88
2023-05-23T16:35:17.655Z,99555.13
2023-05-23T16:37:50.057Z,99548.47
2023-05-23T16:40:19.898Z,99546.41
2023-05-23T16:42:49.612Z,99547.06
2023-05-23T16:45:19.367Z,99551.72
2023-05-23T16:47:49.046Z,99551.72
2023-05-23T16:50:18.973Z,99559.22
2023-05-23T16:52:54.405Z,99565.28
2023-05-23T16:55:24.568Z,99570.88
2023-05-23T16:57:54.235Z,99569.22
2023-05-23T17:00:25.133Z,99568.31
2023-05-23T17:02:54.921Z,99560.00
2023-05-23T17:05:24.908Z,99572.94
2023-05-23T17:07:57.334Z,99576.13
2023-05-23T17:10:27.114Z,99582.09
2023-05-23T17:12:56.906Z,99578.81
2023-05-23T17:15:26.694Z,99584.31
2023-05-23T17:17:56.452Z,99590.69
2023-05-23T17:20:27.224Z,99593.56
2023-05-23T17:22:59.897Z,99594.41
2023-05-23T17:25:29.616Z,99598.13
2023-05-23T17:27:59.598Z,99596.84
2023-05-23T17:30:32.462Z,99593.81
2023-05-23T17:33:03.211Z,99596.38
2023-05-23T17:35:33.160Z,99598.53
2023-05-23T17:38:06.022Z,99609.50
2023-05-23T17:40:39.171Z,99605.38
2023-05-23T17:43:09.347Z,99620.81
2023-05-23T17:45:39.116Z,99614.03
2023-05-23T17:48:08.838Z,99616.31
2023-05-23T17:50:38.760Z,99620.28
2023-05-23T17:53:11.470Z,99617.28
2023-05-23T17:55:41.277Z,99617.72
2023-05-23T17:58:10.912Z,99620.63
2023-05-23T18:00:40.883Z,99625.38
2023-05-23T18:03:10.828Z,99622.22
2023-05-23T18:05:40.564Z,99626.06
2023-05-23T18:08:12.898Z,99623.59
2023-05-23T18:10:47.734Z,99622.22
2023-05-23T18:13:17.796Z,99632.13
2023-05-23T18:15:47.474Z,99635.06
2023-05-23T18:18:18.270Z,99643.47
2023-05-23T18:20:48.105Z,99647.28
2023-05-23T18:23:20.936Z,99646.66
2023-05-23T18:25:50.670Z,99652.16
2023-05-23T18:28:20.355Z,99656.81
2023-05-23T18:30:51.502Z,99652.66
2023-05-23T18:33:21.694Z,99666.22
2023-05-23T18:35:52.611Z,99663.94
2023-05-23T18:38:25.009Z,99676.56
2023-05-23T18:40:54.810Z,99677.81
2023-05-23T18:43:25.449Z,99685.16
2023-05-23T18:45:55.109Z,99694.19
2023-05-23T18:48:24.863Z,99693.53
2023-05-23T18:50:54.515Z,99692.91
2023-05-23T18:53:26.754Z,99702.91
2023-05-23T18:55:57.873Z,99707.47
2023-05-23T18:58:27.519Z,99704.16
2023-05-23T19:01:00.127Z,99699.91
2023-05-23T19:03:29.951Z,99705.47
2023-05-23T19:06:02.787Z,99707.41
2023-05-23T19:08:35.729Z,99712.78
2023-05-23T19:11:06.169Z,99720.81
2023-05-23T19:13:36.302Z,99718.25
2023-05-23T19:16:06.291Z,99715.63
2023-05-23T19:18:35.987Z,99726.38
2023-05-23T19:21:06.113Z,99722.94
2023-05-23T19:23:38.420Z,99718.69
2023-05-23T19:26:10.388Z,99711.09
2023-05-23T19:28:40.395Z,99716.69
2023-05-23T19:31:12.472Z,99722.19
2023-05-23T19:33:42.314Z,99715.28
2023-05-23T19:36:12.391Z,99724.25
2023-05-23T19:38:44.839Z,99720.03
2023-05-23T19:41:14.629Z,99722.88
2023-05-23T19:43:44.318Z,99720.41
2023-05-23T19:46:15.861Z,99723.19
2023-05-23T19:48:45.841Z,99728.56
2023-05-23T19:51:16.296Z,99724.25
2023-05-23T19:53:48.897Z,99731.47
2023-05-23T19:56:18.859Z,99736.00
2023-05-23T19:58:48.535Z,99729.91
2023-05-23T20:01:18.430Z,99731.78
2023-05-23T20:03:48.227Z,99730.09
2023-05-23T20:06:18.755Z,99730.19
2023-05-23T20:08:51.149Z,99734.63
2023-05-23T20:11:20.802Z,99735.56
2023-05-23T20:13:50.458Z,99740.09
2023-05-23T20:16:20.705Z,99742.78
2023-05-23T20:18:50.483Z,99749.03
2023-05-23T20:21:20.565Z,99751.69
2023-05-23T20:23:53.151Z,99757.03
2023-05-23T20:26:22.985Z,99754.34
2023-05-23T20:28:52.715Z,99759.69
2023-05-23T20:31:22.373Z,99753.53
2023-05-23T20:33:52.669Z,99758.03
2023-05-23T20:36:23.799Z,99759.84
2023-05-23T20:38:56.091Z,99764.31
2023-05-23T20:41:25.969Z,99758.22
2023-05-23T20:43:55.973Z,99766.19
2023-05-23T20:46:26.253Z,99762.75
2023-05-23T20:48:57.639Z,99772.53
2023-05-23T20:51:27.748Z,99778.78
2023-05-23T20:54:00.028Z,99782.38
2023-05-23T20:56:31.164Z,99785.09
2023-05-23T21:01:36.392Z,99787.81
2023-05-23T21:04:06.171Z,99794.13
2023-05-23T21:06:36.992Z,99795.09
2023-05-23T21:09:10.112Z,99796.09
2023-05-23T21:11:39.795Z,99795.28
2023-05-23T21:14:09.409Z,99792.72
2023-05-23T21:16:39.171Z,99793.78
2023-05-23T21:19:09.179Z,99793.94
2023-05-23T21:21:40.105Z,99797.56
2023-05-23T21:24:14.342Z,99797.66
2023-05-23T21:26:44.049Z,99803.03
2023-05-23T21:29:13.707Z,99804.00
2023-05-23T21:31:43.392Z,99801.41
2023-05-23T21:34:23.113Z,99805.94
2023-05-23T21:36:54.589Z,99806.06
2023-05-23T21:39:36.072Z,99809.63
2023-05-23T21:42:13.007Z,99796.38
2023-05-23T21:44:42.675Z,99797.31
2023-05-23T21:47:12.396Z,99806.19
2023-05-23T21:49:42.091Z,99808.06
2023-05-23T21:52:11.737Z,99801.06
2023-05-23T21:54:44.272Z,99806.44
2023-05-23T21:57:13.871Z,99805.59
2023-05-23T21:59:44.223Z,99802.13
2023-05-23T22:02:14.124Z,99802.16
2023-05-23T22:04:45.042Z,99806.72
2023-05-23T22:07:14.809Z,99807.75
2023-05-23T22:09:47.241Z,99815.75
2023-05-23T22:12:17.679Z,99815.81
2023-05-23T22:14:49.860Z,99817.66
2023-05-23T22:17:23.803Z,99823.06
2023-05-23T22:19:56.099Z,99822.22
2023-05-23T22:22:26.127Z,99817.78
2023-05-23T22:24:58.419Z,99822.16
2023-05-23T22:27:28.082Z,99829.16
2023-05-23T22:29:58.166Z,99825.53
2023-05-23T22:32:27.849Z,99831.59
2023-05-23T22:34:57.448Z,99834.13
2023-05-23T22:37:27.081Z,99830.47
2023-05-23T22:39:59.251Z,99836.59
2023-05-23T22:42:28.940Z,99840.94
2023-05-23T22:44:58.617Z,99837.34
2023-05-23T22:47:29.443Z,99838.28
2023-05-23T22:49:59.412Z,99845.31
2023-05-23T22:52:31.597Z,99840.00
2023-05-23T22:55:05.335Z,99834.63
2023-05-23T22:57:35.951Z,99833.72
2023-05-23T23:00:05.863Z,99834.56
2023-05-23T23:02:35.585Z,99834.53
2023-05-23T23:05:05.482Z,99836.25
2023-05-23T23:07:35.065Z,99838.88
2023-05-23T23:10:07.948Z,99837.09
2023-05-23T23:12:37.563Z,99826.56
2023-05-23T23:15:08.937Z,99829.19
2023-05-23T23:17:39.031Z,99826.53
2023-05-23T23:20:12.799Z,99826.50
2023-05-23T23:22:42.991Z,99835.31
2023-05-23T23:25:15.763Z,99837.09
2023-05-23T23:27:45.395Z,99834.50
2023-05-23T23:30:15.820Z,99838.09
2023-05-23T23:32:47.732Z,99835.50
2023-05-23T23:35:17.772Z,99836.38
2023-05-23T23:37:47.570Z,99831.09
2023-05-23T23:40:19.835Z,99839.94
2023-05-23T23:42:49.511Z,99837.34
2023-05-23T23:45:19.251Z,99845.50
2023-05-23T23:47:49.037Z,99845.72
2023-05-23T23:50:18.876Z,99848.47
2023-05-23T23:52:48.569Z,99851.28
2023-05-23T23:55:20.846Z,99847.97
2023-05-23T23:57:50.672Z,99857.81
